Time;durP1;ratioP1;P1;durP2;ratioP2;P2;SDS_P1;SDS_P2;PMS_P1;PMS_P2;Temp;Humidity;BMP_temperature;BMP_pressure;BME280_temperature;BME280_humidity;BME280_pressure;Samples;Min_cycle;Max_cycle;Signal;HPM_P1;HPM_P2
2021/10/06 00:00:44;;;;;;;2.30;1.33;;;;;;;;;;5044083;28;20674;-68
2021/10/06 00:03:17;;;;;;;2.70;1.03;;;;;;;;;;5084948;28;20685;-68
2021/10/06 00:05:52;;;;;;;3.13;1.30;;;;;;;;;;5061905;28;20213;-67
2021/10/06 00:08:25;;;;;;;1.80;1.10;;;;;;;;;;5065673;28;20217;-67
2021/10/06 00:10:53;;;;;;;2.83;1.10;;;;;;;;;;5046422;28;20209;-67
2021/10/06 00:13:23;;;;;;;4.13;1.47;;;;;;;;;;5066872;28;20205;-68
2021/10/06 00:15:54;;;;;;;3.37;1.20;;;;;;;;;;5068152;28;20205;-68
2021/10/06 00:18:24;;;;;;;3.10;1.43;;;;;;;;;;5060219;28;20206;-68
2021/10/06 00:20:55;;;;;;;1.97;1.27;;;;;;;;;;5050904;28;20207;-68
2021/10/06 00:23:30;;;;;;;2.37;1.37;;;;;;;;;;5068665;28;20225;-68
2021/10/06 00:26:00;;;;;;;3.00;1.30;;;;;;;;;;5057042;28;20202;-68
2021/10/06 00:28:30;;;;;;;3.07;1.20;;;;;;;;;;5063310;28;20737;-68
2021/10/06 00:31:01;;;;;;;4.17;1.53;;;;;;;;;;5059851;28;20194;-68
2021/10/06 00:33:31;;;;;;;2.20;1.20;;;;;;;;;;5057493;28;20205;-68
2021/10/06 00:36:05;;;;;;;3.40;1.53;;;;;;;;;;5062517;28;20195;-68
2021/10/06 00:38:38;;;;;;;3.20;1.40;;;;;;;;;;5063990;28;20216;-67
2021/10/06 00:41:07;;;;;;;3.10;1.43;;;;;;;;;;5042521;28;20237;-68
2021/10/06 00:43:38;;;;;;;2.43;1.50;;;;;;;;;;5064270;28;20252;-67
2021/10/06 00:46:09;;;;;;;2.93;1.30;;;;;;;;;;5061841;28;20199;-68
2021/10/06 00:48:41;;;;;;;2.93;1.50;;;;;;;;;;5063282;28;20201;-67
2021/10/06 00:51:17;;;;;;;2.37;1.20;;;;;;;;;;5042815;28;20194;-68
2021/10/06 00:53:46;;;;;;;2.97;1.50;;;;;;;;;;5064437;28;20306;-67
2021/10/06 00:56:18;;;;;;;2.60;1.40;;;;;;;;;;5062622;28;20190;-68
2021/10/06 00:58:48;;;;;;;2.80;1.57;;;;;;;;;;5069794;28;20637;-67
2021/10/06 01:01:15;;;;;;;5.23;1.90;;;;;;;;;;5070283;28;20194;-67
2021/10/06 01:03:47;;;;;;;3.57;1.40;;;;;;;;;;5069091;28;20286;-67
2021/10/06 01:06:19;;;;;;;3.93;1.57;;;;;;;;;;5059260;28;20266;-67
2021/10/06 01:08:48;;;;;;;3.60;1.60;;;;;;;;;;5070786;28;20744;-67
2021/10/06 01:11:18;;;;;;;3.57;1.53;;;;;;;;;;5066592;28;20644;-67
2021/10/06 01:13:49;;;;;;;3.63;2.17;;;;;;;;;;5066312;28;20206;-67
2021/10/06 01:16:23;;;;;;;4.40;1.90;;;;;;;;;;5059436;28;20209;-67
2021/10/06 01:18:55;;;;;;;3.87;1.83;;;;;;;;;;5067741;28;20439;-67
2021/10/06 01:21:27;;;;;;;3.07;1.90;;;;;;;;;;5071523;28;20202;-67
2021/10/06 01:23:57;;;;;;;4.37;1.70;;;;;;;;;;5050268;28;20210;-67
2021/10/06 01:26:26;;;;;;;4.67;2.00;;;;;;;;;;5063805;28;20232;-67
2021/10/06 01:28:58;;;;;;;2.90;1.70;;;;;;;;;;5064182;28;20403;-67
2021/10/06 01:31:28;;;;;;;6.40;1.87;;;;;;;;;;5070049;28;20260;-68
2021/10/06 01:34:01;;;;;;;5.20;1.90;;;;;;;;;;5051631;28;20210;-68
2021/10/06 01:36:34;;;;;;;3.67;1.43;;;;;;;;;;5065505;28;20205;-68
2021/10/06 01:39:07;;;;;;;4.07;2.03;;;;;;;;;;5069434;28;20213;-68
2021/10/06 01:41:39;;;;;;;4.57;1.80;;;;;;;;;;5068879;28;20213;-68
2021/10/06 01:44:18;;;;;;;6.37;2.33;;;;;;;;;;5059106;28;20659;-68
2021/10/06 01:46:53;;;;;;;5.77;2.63;;;;;;;;;;5075847;28;20202;-67
2021/10/06 01:49:31;;;;;;;4.00;2.10;;;;;;;;;;5046858;28;20198;-67
2021/10/06 01:52:01;;;;;;;6.07;2.30;;;;;;;;;;5052173;28;20549;-67
2021/10/06 01:54:32;;;;;;;5.90;1.97;;;;;;;;;;5063262;28;20233;-67
2021/10/06 01:57:02;;;;;;;6.70;2.30;;;;;;;;;;5068006;28;20214;-68
2021/10/06 01:59:32;;;;;;;8.37;2.03;;;;;;;;;;5087975;28;20505;-68
2021/10/06 02:02:06;;;;;;;4.87;2.13;;;;;;;;;;5070853;28;20197;-67
2021/10/06 02:04:43;;;;;;;4.60;2.23;;;;;;;;;;5047397;28;20644;-68
2021/10/06 02:07:14;;;;;;;3.37;1.63;;;;;;;;;;5062371;28;20201;-68
2021/10/06 02:09:45;;;;;;;5.93;1.97;;;;;;;;;;5066798;28;20197;-67
2021/10/06 02:12:17;;;;;;;4.00;1.70;;;;;;;;;;5065283;28;20625;-68
2021/10/06 02:14:44;;;;;;;3.47;1.60;;;;;;;;;;5063613;28;20230;-67
2021/10/06 02:17:16;;;;;;;5.73;1.80;;;;;;;;;;5047648;28;20209;-68
2021/10/06 02:19:48;;;;;;;3.33;1.60;;;;;;;;;;5067886;28;20205;-68
2021/10/06 02:22:15;;;;;;;4.97;2.07;;;;;;;;;;5069933;28;20587;-68
2021/10/06 02:24:45;;;;;;;4.60;1.80;;;;;;;;;;5046845;28;20301;-67
2021/10/06 02:27:15;;;;;;;3.80;1.50;;;;;;;;;;5075802;28;20193;-67
2021/10/06 02:29:48;;;;;;;4.10;1.77;;;;;;;;;;5075702;28;20458;-67
2021/10/06 02:32:18;;;;;;;3.83;1.70;;;;;;;;;;5066925;28;20229;-67
2021/10/06 02:34:50;;;;;;;5.37;1.80;;;;;;;;;;5069541;28;20204;-64
2021/10/06 02:37:19;;;;;;;2.87;1.30;;;;;;;;;;5063361;28;20206;-65
2021/10/06 02:39:48;;;;;;;4.00;1.40;;;;;;;;;;5068645;28;20615;-64
2021/10/06 02:42:17;;;;;;;4.47;1.43;;;;;;;;;;5067563;28;20690;-66
2021/10/06 02:44:49;;;;;;;3.47;1.70;;;;;;;;;;5065933;28;20686;-66
2021/10/06 02:47:21;;;;;;;2.27;1.30;;;;;;;;;;5070364;28;20190;-66
2021/10/06 02:49:54;;;;;;;2.30;1.17;;;;;;;;;;5067424;28;20252;-66
2021/10/06 02:52:24;;;;;;;4.10;1.67;;;;;;;;;;5062371;28;20198;-66
2021/10/06 02:54:55;;;;;;;3.63;1.30;;;;;;;;;;5068479;28;20233;-66
2021/10/06 02:57:25;;;;;;;3.97;1.80;;;;;;;;;;5065058;28;20199;-67
2021/10/06 02:59:56;;;;;;;2.73;1.43;;;;;;;;;;5068390;28;20194;-66
2021/10/06 03:02:25;;;;;;;3.17;1.40;;;;;;;;;;5048536;28;20201;-66
2021/10/06 03:04:56;;;;;;;3.03;1.57;;;;;;;;;;5056528;28;20210;-64
2021/10/06 03:07:28;;;;;;;2.80;1.17;;;;;;;;;;5044961;28;20577;-65
2021/10/06 03:10:00;;;;;;;2.63;1.20;;;;;;;;;;5068046;28;20192;-64
2021/10/06 03:12:33;;;;;;;3.17;1.10;;;;;;;;;;5066281;28;20563;-64
2021/10/06 03:15:05;;;;;;;2.83;1.47;;;;;;;;;;5067382;28;20193;-64
2021/10/06 03:17:34;;;;;;;1.63;0.97;;;;;;;;;;5064440;28;20212;-64
2021/10/06 03:20:10;;;;;;;2.10;1.03;;;;;;;;;;5066136;28;20259;-64
2021/10/06 03:22:41;;;;;;;2.53;1.40;;;;;;;;;;5061012;28;20296;-64
2021/10/06 03:25:13;;;;;;;2.47;1.30;;;;;;;;;;5072127;28;20192;-64
2021/10/06 03:27:46;;;;;;;3.30;1.40;;;;;;;;;;5070264;28;20203;-64
2021/10/06 03:30:16;;;;;;;2.30;1.27;;;;;;;;;;5065441;28;20557;-65
2021/10/06 03:32:45;;;;;;;3.40;1.40;;;;;;;;;;5064792;28;20224;-64
2021/10/06 03:35:18;;;;;;;2.10;1.10;;;;;;;;;;5068307;28;20623;-64
2021/10/06 03:37:51;;;;;;;1.90;1.10;;;;;;;;;;5049025;28;20189;-64
2021/10/06 03:40:22;;;;;;;1.83;1.00;;;;;;;;;;5053211;28;20182;-64
2021/10/06 03:42:54;;;;;;;2.10;1.20;;;;;;;;;;5063512;28;20763;-64
2021/10/06 03:45:29;;;;;;;1.27;1.00;;;;;;;;;;5068565;28;20665;-64
2021/10/06 03:48:01;;;;;;;3.53;1.30;;;;;;;;;;5069687;28;20194;-65
2021/10/06 03:50:30;;;;;;;2.50;1.27;;;;;;;;;;5066315;28;20274;-65
2021/10/06 03:53:01;;;;;;;5.63;1.60;;;;;;;;;;5064177;28;20345;-64
2021/10/06 03:55:33;;;;;;;2.10;1.10;;;;;;;;;;5088043;28;20240;-64
2021/10/06 03:58:02;;;;;;;2.37;1.00;;;;;;;;;;5088724;28;20714;-65
2021/10/06 04:00:42;;;;;;;2.77;1.23;;;;;;;;;;5083588;28;20209;-65
2021/10/06 04:03:12;;;;;;;2.40;0.90;;;;;;;;;;5070401;28;20724;-64
2021/10/06 04:05:42;;;;;;;1.97;1.10;;;;;;;;;;5054616;28;20219;-64
2021/10/06 04:08:17;;;;;;;1.70;0.90;;;;;;;;;;5088342;28;20192;-64
2021/10/06 04:10:50;;;;;;;2.60;0.90;;;;;;;;;;5083621;28;20205;-64
2021/10/06 04:13:22;;;;;;;2.53;1.03;;;;;;;;;;5076836;28;20239;-64
2021/10/06 04:15:52;;;;;;;3.30;1.23;;;;;;;;;;5092081;28;20200;-64
2021/10/06 04:18:22;;;;;;;4.87;1.00;;;;;;;;;;5069782;28;20259;-64
2021/10/06 04:20:54;;;;;;;3.90;1.30;;;;;;;;;;5094104;28;20188;-64
2021/10/06 04:23:24;;;;;;;1.97;0.80;;;;;;;;;;5091671;28;20228;-64
2021/10/06 04:26:01;;;;;;;2.33;1.00;;;;;;;;;;5072042;28;20272;-64
2021/10/06 04:28:34;;;;;;;2.13;0.93;;;;;;;;;;5078476;28;20763;-64
2021/10/06 04:31:05;;;;;;;2.10;1.00;;;;;;;;;;5102167;28;20196;-65
2021/10/06 04:33:36;;;;;;;2.70;1.00;;;;;;;;;;5073585;28;20205;-64
2021/10/06 04:36:07;;;;;;;6.53;1.73;;;;;;;;;;5087505;28;20236;-65
2021/10/06 04:38:39;;;;;;;2.10;1.13;;;;;;;;;;5082437;28;20928;-64
2021/10/06 04:41:10;;;;;;;1.30;0.80;;;;;;;;;;5085052;28;20224;-65
2021/10/06 04:43:39;;;;;;;1.70;1.00;;;;;;;;;;5070895;28;20219;-64
2021/10/06 04:46:09;;;;;;;2.33;1.00;;;;;;;;;;5077545;28;20241;-65
2021/10/06 04:48:38;;;;;;;2.40;1.27;;;;;;;;;;5085811;28;20251;-65
2021/10/06 04:51:10;;;;;;;2.00;0.90;;;;;;;;;;5088817;28;20205;-64
2021/10/06 04:53:38;;;;;;;2.00;1.00;;;;;;;;;;5084767;28;20735;-64
2021/10/06 04:56:09;;;;;;;1.97;1.00;;;;;;;;;;5061651;28;20201;-64
2021/10/06 04:58:52;;;;;;;1.70;0.97;;;;;;;;;;5060171;28;20280;-64
2021/10/06 05:01:24;;;;;;;1.97;0.90;;;;;;;;;;5064383;28;20530;-64
2021/10/06 05:03:57;;;;;;;1.80;0.80;;;;;;;;;;5067375;28;20217;-65
2021/10/06 05:06:28;;;;;;;1.90;1.00;;;;;;;;;;5061595;28;20645;-64
2021/10/06 05:09:00;;;;;;;2.83;0.70;;;;;;;;;;5074721;28;20281;-65
2021/10/06 05:11:41;;;;;;;1.53;0.80;;;;;;;;;;5048030;28;20272;-65
2021/10/06 05:14:11;;;;;;;2.57;1.07;;;;;;;;;;5059022;28;20190;-65
2021/10/06 05:16:45;;;;;;;2.10;0.90;;;;;;;;;;5056804;28;20571;-65
2021/10/06 05:19:17;;;;;;;3.23;1.03;;;;;;;;;;5067254;28;20565;-65
2021/10/06 05:21:47;;;;;;;2.37;0.90;;;;;;;;;;5065234;28;20709;-65
2021/10/06 05:24:18;;;;;;;1.37;0.80;;;;;;;;;;5053145;28;20274;-65
2021/10/06 05:26:46;;;;;;;2.33;1.07;;;;;;;;;;5067168;28;20255;-64
2021/10/06 05:29:14;;;;;;;3.27;1.27;;;;;;;;;;5070204;28;20285;-65
2021/10/06 05:31:44;;;;;;;2.60;0.77;;;;;;;;;;5070764;28;20213;-64
2021/10/06 05:34:14;;;;;;;2.00;1.13;;;;;;;;;;5068309;28;20205;-65
2021/10/06 05:36:45;;;;;;;3.53;1.00;;;;;;;;;;5069865;28;20616;-64
2021/10/06 05:39:18;;;;;;;2.53;0.80;;;;;;;;;;5067698;28;20629;-66
2021/10/06 05:41:52;;;;;;;4.07;1.17;;;;;;;;;;5069536;28;20221;-65
2021/10/06 05:44:20;;;;;;;2.87;0.93;;;;;;;;;;5046735;28;20309;-65
2021/10/06 05:46:52;;;;;;;2.90;0.80;;;;;;;;;;5061148;28;20642;-65
2021/10/06 05:49:22;;;;;;;4.33;1.40;;;;;;;;;;5048955;28;20207;-65
2021/10/06 05:51:53;;;;;;;3.47;0.87;;;;;;;;;;5043115;28;20196;-65
2021/10/06 05:54:30;;;;;;;3.47;1.07;;;;;;;;;;5046999;28;20298;-65
2021/10/06 05:57:00;;;;;;;1.80;0.80;;;;;;;;;;5068732;28;20748;-65
2021/10/06 05:59:31;;;;;;;2.73;0.90;;;;;;;;;;5068515;28;20210;-65
2021/10/06 06:02:01;;;;;;;2.20;1.13;;;;;;;;;;5060804;28;20217;-65
2021/10/06 06:04:34;;;;;;;2.53;0.90;;;;;;;;;;5061040;28;20228;-65
2021/10/06 06:07:05;;;;;;;2.33;0.90;;;;;;;;;;5061366;28;20279;-66
2021/10/06 06:09:36;;;;;;;3.73;1.20;;;;;;;;;;5064337;28;20210;-65
2021/10/06 06:12:11;;;;;;;14.00;2.40;;;;;;;;;;5063042;28;20227;-68
2021/10/06 06:14:46;;;;;;;19.07;4.00;;;;;;;;;;5082400;28;20289;-69
2021/10/06 06:17:18;;;;;;;16.23;4.03;;;;;;;;;;5064933;28;20323;-70
2021/10/06 06:19:55;;;;;;;16.10;4.10;;;;;;;;;;5068401;28;20531;-69
2021/10/06 06:22:24;;;;;;;23.60;4.87;;;;;;;;;;5063375;28;20212;-69
2021/10/06 06:24:56;;;;;;;15.40;4.57;;;;;;;;;;5068711;28;20654;-70
2021/10/06 06:27:29;;;;;;;13.40;4.67;;;;;;;;;;5070173;28;20209;-66
2021/10/06 06:30:00;;;;;;;14.43;4.50;;;;;;;;;;5065888;28;20674;-66
2021/10/06 06:32:31;;;;;;;14.17;4.70;;;;;;;;;;5063503;28;20253;-67
2021/10/06 06:35:07;;;;;;;12.80;4.23;;;;;;;;;;5064420;28;20594;-66
2021/10/06 06:37:35;;;;;;;16.77;3.93;;;;;;;;;;5066614;28;20320;-68
2021/10/06 06:40:07;;;;;;;13.43;3.90;;;;;;;;;;5065301;28;20626;-68
2021/10/06 06:42:37;;;;;;;12.40;4.30;;;;;;;;;;5060876;28;20248;-68
2021/10/06 06:45:17;;;;;;;10.10;3.30;;;;;;;;;;5069248;28;20672;-67
2021/10/06 06:47:47;;;;;;;10.03;3.60;;;;;;;;;;5067844;28;20657;-66
2021/10/06 06:50:35;;;;;;;9.20;3.30;;;;;;;;;;5066063;28;20220;-65
2021/10/06 06:53:04;;;;;;;8.57;3.20;;;;;;;;;;5062427;28;20664;-65
2021/10/06 06:55:34;;;;;;;10.83;3.43;;;;;;;;;;5065968;28;20358;-65
2021/10/06 06:58:04;;;;;;;6.83;3.10;;;;;;;;;;5063439;28;20230;-65
2021/10/06 07:00:31;;;;;;;8.60;3.37;;;;;;;;;;5059654;28;20233;-69
2021/10/06 07:03:04;;;;;;;7.50;3.10;;;;;;;;;;5066138;28;20326;-69
2021/10/06 07:05:36;;;;;;;8.40;3.10;;;;;;;;;;5062383;28;20398;-70
2021/10/06 07:08:08;;;;;;;6.87;2.93;;;;;;;;;;5065906;28;20221;-68
2021/10/06 07:10:38;;;;;;;5.23;2.73;;;;;;;;;;5066213;28;20231;-69
2021/10/06 07:13:26;;;;;;;5.47;2.20;;;;;;;;;;5091632;28;20822;-72
2021/10/06 07:15:58;;;;;;;8.30;2.57;;;;;;;;;;5068691;28;20206;-68
2021/10/06 07:18:29;;;;;;;8.77;2.20;;;;;;;;;;5039174;28;20241;-68
2021/10/06 07:21:01;;;;;;;7.93;2.47;;;;;;;;;;5066439;28;20681;-67
2021/10/06 07:23:33;;;;;;;4.17;1.70;;;;;;;;;;5068944;28;20233;-68
2021/10/06 07:26:04;;;;;;;4.60;1.90;;;;;;;;;;5067355;28;20239;-67
2021/10/06 07:28:47;;;;;;;3.97;1.80;;;;;;;;;;5060502;28;20235;-68
2021/10/06 07:31:17;;;;;;;6.63;2.43;;;;;;;;;;5068936;28;20198;-69
2021/10/06 07:33:50;;;;;;;6.40;1.90;;;;;;;;;;5067027;28;20277;-69
2021/10/06 07:36:36;;;;;;;6.23;2.07;;;;;;;;;;5063408;28;20212;-73
2021/10/06 07:39:07;;;;;;;3.37;1.50;;;;;;;;;;5063418;28;20209;-73
2021/10/06 07:41:39;;;;;;;4.87;2.07;;;;;;;;;;5064429;28;20221;-73
2021/10/06 07:44:10;;;;;;;4.60;1.67;;;;;;;;;;5064818;28;20217;-73
2021/10/06 07:46:48;;;;;;;2.90;1.60;;;;;;;;;;5066745;28;20300;-70
2021/10/06 07:49:30;;;;;;;4.57;1.93;;;;;;;;;;5068255;28;20298;-69
2021/10/06 07:52:02;;;;;;;3.77;1.93;;;;;;;;;;5065862;28;20198;-69
2021/10/06 07:54:32;;;;;;;2.67;1.37;;;;;;;;;;5058443;28;20291;-69
2021/10/06 07:57:08;;;;;;;4.37;1.90;;;;;;;;;;5070100;28;20212;-72
2021/10/06 07:59:45;;;;;;;5.10;1.60;;;;;;;;;;5065771;28;20198;-71
2021/10/06 08:02:15;;;;;;;2.83;1.43;;;;;;;;;;5064184;28;20650;-73
2021/10/06 08:04:48;;;;;;;5.73;1.40;;;;;;;;;;5058673;28;20316;-69
2021/10/06 08:07:18;;;;;;;2.80;1.20;;;;;;;;;;5068454;28;20205;-72
2021/10/06 08:09:53;;;;;;;4.97;1.67;;;;;;;;;;5065165;28;20198;-70
2021/10/06 08:12:24;;;;;;;3.23;1.53;;;;;;;;;;5054674;28;20193;-67
2021/10/06 08:14:54;;;;;;;3.73;1.40;;;;;;;;;;5067002;28;20201;-67
2021/10/06 08:17:37;;;;;;;3.23;1.30;;;;;;;;;;5061727;28;20280;-70
2021/10/06 08:20:07;;;;;;;3.43;1.67;;;;;;;;;;5059839;28;20218;-69
2021/10/06 08:22:38;;;;;;;2.13;1.10;;;;;;;;;;5053935;28;20239;-70
2021/10/06 08:25:11;;;;;;;2.73;1.20;;;;;;;;;;5064756;28;20961;-67
2021/10/06 08:27:44;;;;;;;1.77;1.00;;;;;;;;;;5065654;28;20217;-66
2021/10/06 08:30:15;;;;;;;2.07;1.27;;;;;;;;;;5065142;28;20202;-72
2021/10/06 08:32:46;;;;;;;3.63;1.40;;;;;;;;;;5065104;28;20288;-71
2021/10/06 08:35:16;;;;;;;6.10;1.40;;;;;;;;;;5066524;28;20212;-68
2021/10/06 08:37:46;;;;;;;2.70;1.33;;;;;;;;;;5049267;28;20300;-70
2021/10/06 08:40:16;;;;;;;1.47;1.10;;;;;;;;;;5066847;28;20218;-68
2021/10/06 08:42:45;;;;;;;2.30;1.23;;;;;;;;;;5064183;28;21071;-67
2021/10/06 08:45:14;;;;;;;7.53;1.30;;;;;;;;;;5068201;28;20246;-71
2021/10/06 08:47:46;;;;;;;3.03;1.10;;;;;;;;;;5058269;28;20190;-71
2021/10/06 08:50:19;;;;;;;3.20;1.10;;;;;;;;;;5065953;28;20685;-70
2021/10/06 08:52:49;;;;;;;3.33;1.27;;;;;;;;;;5064432;28;20201;-71
2021/10/06 08:55:27;;;;;;;3.43;1.10;;;;;;;;;;5061268;28;20718;-69
2021/10/06 08:58:00;;;;;;;3.40;1.17;;;;;;;;;;5063330;28;20217;-69
2021/10/06 09:00:29;;;;;;;4.00;1.67;;;;;;;;;;5055797;28;20226;-72
2021/10/06 09:03:11;;;;;;;2.17;0.90;;;;;;;;;;5037639;28;20230;-73
2021/10/06 09:06:04;;;;;;;1.87;0.97;;;;;;;;;;5068878;28;20313;-70
2021/10/06 09:08:37;;;;;;;2.30;1.10;;;;;;;;;;5064819;28;20229;-71
2021/10/06 09:11:08;;;;;;;2.70;0.80;;;;;;;;;;5068661;28;20192;-72
2021/10/06 09:13:45;;;;;;;1.63;0.87;;;;;;;;;;5070895;28;20205;-74
2021/10/06 09:16:20;;;;;;;1.83;0.77;;;;;;;;;;5065263;28;20197;-72
2021/10/06 09:18:50;;;;;;;2.33;0.93;;;;;;;;;;5063066;28;20668;-71
2021/10/06 09:21:23;;;;;;;3.03;0.83;;;;;;;;;;5072698;28;20208;-75
2021/10/06 09:23:52;;;;;;;2.37;0.93;;;;;;;;;;5069835;28;20228;-75
2021/10/06 09:26:24;;;;;;;1.57;0.70;;;;;;;;;;5071491;28;20222;-75
2021/10/06 09:28:54;;;;;;;1.17;0.70;;;;;;;;;;5051589;28;20248;-74
2021/10/06 09:31:26;;;;;;;1.13;0.90;;;;;;;;;;5079677;28;20245;-72
2021/10/06 09:33:58;;;;;;;1.70;0.80;;;;;;;;;;5050809;28;20210;-72
2021/10/06 09:36:31;;;;;;;1.63;0.70;;;;;;;;;;5056037;28;20288;-73
2021/10/06 09:39:07;;;;;;;1.60;0.70;;;;;;;;;;5067688;28;20195;-71
2021/10/06 09:41:45;;;;;;;1.43;0.80;;;;;;;;;;5081550;28;20212;-71
2021/10/06 09:44:22;;;;;;;2.37;0.80;;;;;;;;;;5062501;28;20225;-73
2021/10/06 09:47:04;;;;;;;0.83;0.60;;;;;;;;;;5070095;28;20205;-75
2021/10/06 09:49:53;;;;;;;1.60;0.70;;;;;;;;;;5069161;28;20233;-72
2021/10/06 09:52:41;;;;;;;1.00;0.70;;;;;;;;;;5068158;28;20620;-69
2021/10/06 09:55:20;;;;;;;1.60;0.60;;;;;;;;;;5057870;28;20238;-68
2021/10/06 09:57:54;;;;;;;0.80;0.60;;;;;;;;;;5052558;28;20202;-68
2021/10/06 10:00:31;;;;;;;1.43;0.73;;;;;;;;;;5052064;28;20200;-69
2021/10/06 10:03:02;;;;;;;1.90;0.70;;;;;;;;;;5042731;28;20674;-66
2021/10/06 10:05:33;;;;;;;1.77;0.80;;;;;;;;;;5068330;28;20210;-67
2021/10/06 10:08:17;;;;;;;1.07;0.67;;;;;;;;;;5058909;28;20245;-67
2021/10/06 10:10:50;;;;;;;2.37;0.80;;;;;;;;;;5075549;28;20992;-66
2021/10/06 10:13:26;;;;;;;0.97;0.70;;;;;;;;;;5068352;28;20205;-66
2021/10/06 10:15:56;;;;;;;1.50;0.77;;;;;;;;;;5071046;28;20193;-65
2021/10/06 10:18:33;;;;;;;1.83;0.67;;;;;;;;;;5057273;28;20219;-66
2021/10/06 10:21:07;;;;;;;1.13;0.63;;;;;;;;;;5068474;28;20213;-67
2021/10/06 10:23:40;;;;;;;1.83;0.83;;;;;;;;;;5070537;28;20201;-67
2021/10/06 10:26:33;;;;;;;2.87;0.50;;;;;;;;;;5051893;28;20692;-65
2021/10/06 10:29:02;;;;;;;1.00;0.60;;;;;;;;;;5059713;28;20197;-65
2021/10/06 10:31:54;;;;;;;2.03;0.93;;;;;;;;;;5060046;28;20217;-65
2021/10/06 10:34:46;;;;;;;1.40;0.57;;;;;;;;;;5068009;28;20275;-65
2021/10/06 10:37:17;;;;;;;2.30;0.50;;;;;;;;;;5050306;28;20195;-65
2021/10/06 10:39:53;;;;;;;0.70;0.60;;;;;;;;;;5066853;28;20253;-65
2021/10/06 10:42:42;;;;;;;1.57;0.50;;;;;;;;;;5061775;28;20216;-67
2021/10/06 10:45:31;;;;;;;0.90;0.60;;;;;;;;;;5069310;28;20217;-67
2021/10/06 10:48:03;;;;;;;0.93;0.63;;;;;;;;;;5062143;28;20213;-68
2021/10/06 10:50:49;;;;;;;1.07;0.60;;;;;;;;;;5065013;28;20265;-68
2021/10/06 10:53:22;;;;;;;1.27;0.60;;;;;;;;;;5068548;28;20215;-68
2021/10/06 10:56:00;;;;;;;0.67;0.60;;;;;;;;;;5068028;28;20240;-67
2021/10/06 10:58:36;;;;;;;1.23;0.60;;;;;;;;;;5042983;28;20704;-68
2021/10/06 11:01:14;;;;;;;1.23;0.60;;;;;;;;;;5054196;28;20202;-66
2021/10/06 11:04:02;;;;;;;1.17;0.60;;;;;;;;;;5067753;28;20709;-66
2021/10/06 11:06:36;;;;;;;0.70;0.67;;;;;;;;;;5058840;28;20737;-69
2021/10/06 11:09:22;;;;;;;1.43;0.57;;;;;;;;;;5067922;28;20215;-70
2021/10/06 11:11:53;;;;;;;0.67;0.53;;;;;;;;;;5070345;28;20201;-70
2021/10/06 11:14:24;;;;;;;1.33;0.70;;;;;;;;;;5064080;28;20766;-71
2021/10/06 11:17:11;;;;;;;1.23;0.60;;;;;;;;;;5067662;28;20220;-67
2021/10/06 11:19:48;;;;;;;1.50;0.60;;;;;;;;;;5065685;28;20253;-67
2021/10/06 11:22:25;;;;;;;0.73;0.50;;;;;;;;;;5049268;28;20531;-68
2021/10/06 11:25:04;;;;;;;0.77;0.70;;;;;;;;;;5072373;28;20243;-67
2021/10/06 11:27:55;;;;;;;1.97;0.60;;;;;;;;;;5050652;28;20644;-67
2021/10/06 11:30:36;;;;;;;0.73;0.50;;;;;;;;;;5045993;28;20610;-71
2021/10/06 11:33:08;;;;;;;1.37;0.63;;;;;;;;;;5083444;28;20253;-69
2021/10/06 11:35:40;;;;;;;1.60;0.53;;;;;;;;;;5068929;28;20616;-70
2021/10/06 11:38:11;;;;;;;1.60;0.60;;;;;;;;;;5066337;28;20209;-68
2021/10/06 11:40:41;;;;;;;0.97;0.60;;;;;;;;;;5048314;28;20288;-70
2021/10/06 11:43:13;;;;;;;1.83;0.50;;;;;;;;;;5050974;28;20286;-68
2021/10/06 11:45:48;;;;;;;1.53;0.63;;;;;;;;;;5057260;28;20297;-69
2021/10/06 11:48:31;;;;;;;1.10;0.70;;;;;;;;;;5073381;28;20193;-69
2021/10/06 11:51:02;;;;;;;1.13;0.80;;;;;;;;;;5068970;28;20281;-69
2021/10/06 11:53:43;;;;;;;3.30;0.57;;;;;;;;;;5067592;28;20209;-72
2021/10/06 11:56:24;;;;;;;1.30;0.63;;;;;;;;;;5080303;28;20215;-72
2021/10/06 11:58:54;;;;;;;4.27;0.90;;;;;;;;;;5087694;28;20204;-71
2021/10/06 12:01:28;;;;;;;0.97;0.67;;;;;;;;;;5067872;28;20220;-74
2021/10/06 12:04:10;;;;;;;1.67;0.90;;;;;;;;;;5087201;28;20230;-72
2021/10/06 12:06:42;;;;;;;1.47;0.63;;;;;;;;;;5060447;28;20640;-72
2021/10/06 12:09:13;;;;;;;1.10;0.87;;;;;;;;;;5089325;28;20278;-71
2021/10/06 12:11:45;;;;;;;2.70;0.80;;;;;;;;;;5086626;28;20546;-75
2021/10/06 12:14:19;;;;;;;2.57;0.80;;;;;;;;;;5072646;28;20185;-73
2021/10/06 12:17:14;;;;;;;1.70;0.60;;;;;;;;;;5086679;28;20196;-68
2021/10/06 12:20:00;;;;;;;1.60;0.90;;;;;;;;;;5093449;28;20777;-68
2021/10/06 12:22:37;;;;;;;2.43;0.90;;;;;;;;;;5082447;28;20212;-70
2021/10/06 12:25:22;;;;;;;1.77;0.80;;;;;;;;;;5086142;28;20751;-70
2021/10/06 12:27:53;;;;;;;1.83;0.70;;;;;;;;;;5087460;28;20194;-67
2021/10/06 12:30:27;;;;;;;1.63;0.77;;;;;;;;;;5079439;28;20204;-70
2021/10/06 12:33:08;;;;;;;1.93;0.73;;;;;;;;;;5086242;28;20711;-66
2021/10/06 12:35:56;;;;;;;2.23;1.10;;;;;;;;;;5086867;28;20268;-66
2021/10/06 12:38:40;;;;;;;2.27;0.80;;;;;;;;;;5085884;28;20624;-76
2021/10/06 12:41:15;;;;;;;1.40;1.00;;;;;;;;;;5075264;28;20225;-69
2021/10/06 12:43:47;;;;;;;1.40;0.70;;;;;;;;;;5073983;28;20224;-69
2021/10/06 12:46:22;;;;;;;1.20;0.70;;;;;;;;;;5087901;28;20240;-69
2021/10/06 12:48:55;;;;;;;1.57;0.80;;;;;;;;;;5087597;28;20201;-68
2021/10/06 12:51:33;;;;;;;1.60;0.90;;;;;;;;;;5090778;28;20200;-70
2021/10/06 12:54:07;;;;;;;1.30;0.70;;;;;;;;;;5090416;28;20193;-71
2021/10/06 12:56:58;;;;;;;1.60;0.77;;;;;;;;;;5083503;27;20209;-69
2021/10/06 12:59:39;;;;;;;5.63;0.93;;;;;;;;;;5093318;28;20196;-68
2021/10/06 13:02:10;;;;;;;1.80;0.70;;;;;;;;;;5085088;28;20211;-69
2021/10/06 13:04:44;;;;;;;2.70;0.83;;;;;;;;;;5072199;28;20198;-71
2021/10/06 13:07:20;;;;;;;3.07;0.73;;;;;;;;;;5083493;28;20228;-69
2021/10/06 13:09:53;;;;;;;2.37;0.80;;;;;;;;;;5072555;28;20558;-69
2021/10/06 13:12:21;;;;;;;1.43;0.87;;;;;;;;;;5086928;28;20204;-71
2021/10/06 13:14:54;;;;;;;1.07;0.80;;;;;;;;;;5071086;28;20287;-68
2021/10/06 13:17:26;;;;;;;1.33;0.90;;;;;;;;;;5088476;28;20202;-69
2021/10/06 13:20:10;;;;;;;1.40;0.80;;;;;;;;;;5072642;28;20213;-69
2021/10/06 13:22:40;;;;;;;2.20;0.90;;;;;;;;;;5085684;28;20205;-69
2021/10/06 13:25:12;;;;;;;1.67;0.70;;;;;;;;;;5087732;28;20903;-69
2021/10/06 13:27:40;;;;;;;0.70;0.70;;;;;;;;;;5089345;28;20211;-70
2021/10/06 13:30:14;;;;;;;1.37;0.73;;;;;;;;;;5089938;28;20722;-72
2021/10/06 13:32:44;;;;;;;1.70;0.60;;;;;;;;;;5068546;28;20940;-70
2021/10/06 13:35:20;;;;;;;0.90;0.57;;;;;;;;;;5075931;28;20228;-69
2021/10/06 13:37:48;;;;;;;1.30;1.07;;;;;;;;;;5089101;28;20254;-69
2021/10/06 13:40:22;;;;;;;1.43;0.73;;;;;;;;;;5079986;28;20189;-68
2021/10/06 13:42:52;;;;;;;1.57;0.60;;;;;;;;;;5087823;28;20223;-71
2021/10/06 13:45:25;;;;;;;1.53;0.80;;;;;;;;;;5084381;28;20295;-70
2021/10/06 13:47:52;;;;;;;1.90;1.00;;;;;;;;;;5086248;28;20202;-70
2021/10/06 13:50:23;;;;;;;1.77;0.80;;;;;;;;;;5085125;28;20268;-70
2021/10/06 13:52:52;;;;;;;2.30;0.70;;;;;;;;;;5088920;28;20626;-70
2021/10/06 13:55:25;;;;;;;1.37;1.00;;;;;;;;;;5070196;28;20229;-70
2021/10/06 13:57:55;;;;;;;3.50;0.80;;;;;;;;;;5046423;28;20635;-70
2021/10/06 14:00:31;;;;;;;0.90;0.60;;;;;;;;;;5061060;28;20202;-69
2021/10/06 14:03:09;;;;;;;2.23;0.90;;;;;;;;;;5063887;28;20198;-68
2021/10/06 14:05:39;;;;;;;2.53;0.80;;;;;;;;;;5063930;28;20314;-68
2021/10/06 14:08:12;;;;;;;1.30;0.80;;;;;;;;;;5066213;28;20202;-68
2021/10/06 14:10:42;;;;;;;3.53;0.90;;;;;;;;;;5063392;28;20206;-69
2021/10/06 14:13:12;;;;;;;3.50;1.03;;;;;;;;;;5050963;28;20206;-69
2021/10/06 14:15:44;;;;;;;2.10;0.90;;;;;;;;;;5059023;28;20202;-68
2021/10/06 14:18:14;;;;;;;3.73;1.00;;;;;;;;;;5066472;28;20197;-70
2021/10/06 14:20:42;;;;;;;1.47;0.90;;;;;;;;;;5064266;28;20226;-70
2021/10/06 14:23:15;;;;;;;2.73;0.97;;;;;;;;;;5067271;28;20197;-74
2021/10/06 14:25:49;;;;;;;3.03;0.87;;;;;;;;;;5061599;28;20217;-74
2021/10/06 14:28:21;;;;;;;2.33;1.23;;;;;;;;;;5040636;28;20194;-70
2021/10/06 14:30:49;;;;;;;2.20;0.80;;;;;;;;;;5046352;28;20228;-73
2021/10/06 14:33:34;;;;;;;1.80;0.70;;;;;;;;;;5048073;28;20202;-66
2021/10/06 14:36:06;;;;;;;1.07;0.70;;;;;;;;;;5067012;28;20819;-67
2021/10/06 14:38:48;;;;;;;1.67;0.87;;;;;;;;;;5055028;28;20229;-72
2021/10/06 14:41:20;;;;;;;2.33;0.80;;;;;;;;;;5045370;28;20213;-71
2021/10/06 14:43:52;;;;;;;4.07;0.97;;;;;;;;;;5064651;28;20210;-67
2021/10/06 14:46:25;;;;;;;3.83;0.80;;;;;;;;;;5047887;28;20218;-69
2021/10/06 14:49:07;;;;;;;1.80;0.70;;;;;;;;;;5067230;28;20213;-70
2021/10/06 14:51:44;;;;;;;0.97;0.60;;;;;;;;;;5049294;28;20233;-71
2021/10/06 14:54:14;;;;;;;1.93;0.87;;;;;;;;;;5068410;28;20197;-71
2021/10/06 14:56:42;;;;;;;2.20;0.70;;;;;;;;;;5057749;28;20343;-70
2021/10/06 14:59:14;;;;;;;2.30;0.87;;;;;;;;;;5047715;28;20209;-74
2021/10/06 15:01:44;;;;;;;1.57;1.10;;;;;;;;;;5044226;28;20592;-72
2021/10/06 15:04:14;;;;;;;1.33;0.70;;;;;;;;;;5065718;28;20275;-70
2021/10/06 15:06:46;;;;;;;5.87;0.80;;;;;;;;;;5065735;28;20269;-69
2021/10/06 15:09:21;;;;;;;2.00;1.00;;;;;;;;;;5049806;28;20217;-68
2021/10/06 15:11:56;;;;;;;1.57;1.00;;;;;;;;;;5065391;28;20193;-70
2021/10/06 15:14:28;;;;;;;1.83;0.90;;;;;;;;;;5048219;28;20620;-70
2021/10/06 15:16:58;;;;;;;1.00;0.70;;;;;;;;;;5065104;28;20198;-73
2021/10/06 15:19:28;;;;;;;1.60;0.77;;;;;;;;;;5065623;28;20199;-70